Heina — LAWY7 — position and weather

sailwx.info

Track history (hours):
 
Tides and Currents Weather Stations Pressure Air Temp Water Temp Dewpoint Dewpoint Depression Visibility Wind Speed Wind Dir Waves Ship Positions

Heina

Last reported at 2018-Jan-18 01:05 UTC. Time now 2018-Jan-21 16:24 UTC.
Position N 34°55' W 032°11'.

Length 225 m; draft 7.4 m.

Type: Ship. MMSI: 258443000.

Date/timePositionNaut miles runAvg speedWind from/ knotsBaromVisibWave heightAir tempDewpointWater temp
2018-Jan-18 01:05N 34°55' W 032°11'115.4
2018-Jan-18 01:00N 34°55' W 032°10'1514.8
2018-Jan-18 00:00N 35°04' W 031°55'114.6
2018-Jan-17 23:57N 35°05' W 031°55'  
2018-Jan-12 15:00N 51°07' E 001°36'815.5
2018-Jan-12 14:30N 51°13' E 001°45'815.2
2018-Jan-12 14:00N 51°19' E 001°52'714.4
2018-Jan-12 13:31N 51°25' E 001°59'714.0
2018-Jan-12 13:00N 51°23' E 002°10'714.0
2018-Jan-12 12:30N 51°21' E 002°20'713.9
2018-Jan-12 12:00N 51°23' E 002°31'713.5
2018-Jan-12 11:30N 51°24' E 002°42'611.3
2018-Jan-12 11:00N 51°25' E 002°50'713.2
2018-Jan-12 10:30N 51°25' E 003°01'713.1
2018-Jan-12 10:00N 51°24' E 003°11'713.1
2018-Jan-12 09:30N 51°25' E 003°22'612.0
2018-Jan-12 09:00N 51°25' E 003°31'5 9.0
2018-Jan-12 08:30N 51°26' E 003°39'5 9.6
2018-Jan-12 08:00N 51°23' E 003°44'611.1
2018-Jan-12 07:30N 51°21' E 003°52'510.9
2018-Jan-12 07:00N 51°25' E 003°58'4 7.2
2018-Jan-12 06:30N 51°23' E 004°02'510.7
2018-Jan-12 06:00N 51°24' E 004°11'4 8.9
2018-Jan-12 05:30N 51°21' E 004°16'1 1.5
2018-Jan-12 05:00N 51°21' E 004°17'0 0.0
2018-Jan-12 04:31N 51°21' E 004°17'0 0.1
2018-Jan-12 04:00N 51°21' E 004°17'2 3.0
2018-Jan-12 03:30N 51°19' E 004°19'0 0.9
2018-Jan-12 02:59N 51°20' E 004°19'0 0.0
2018-Jan-12 02:29N 51°20' E 004°19'0 0.0
2018-Jan-12 01:59N 51°20' E 004°19'0 0.0
2018-Jan-12 01:29N 51°20' E 004°19'0 0.0
2018-Jan-12 00:59N 51°20' E 004°19'0 0.0
2018-Jan-12 00:29N 51°20' E 004°19'0 0.0
2018-Jan-11 23:59N 51°20' E 004°19'0 0.0
2018-Jan-11 23:29N 51°20' E 004°19'0 0.0
2018-Jan-11 22:59N 51°20' E 004°19'0 0.0
2018-Jan-11 22:29N 51°20' E 004°19'0 0.0
2018-Jan-11 21:59N 51°20' E 004°19'0 0.0
2018-Jan-11 21:29N 51°20' E 004°19'0 0.0
2018-Jan-11 20:50N 51°20' E 004°19'0 0.0
2018-Jan-11 20:29N 51°20' E 004°19'0 0.0
2018-Jan-11 19:59N 51°20' E 004°19'0 0.0
2018-Jan-11 19:29N 51°20' E 004°19'0 0.0
2018-Jan-11 18:59N 51°20' E 004°19'0 0.0
2018-Jan-11 18:29N 51°20' E 004°19'0 0.0
2018-Jan-11 17:56N 51°20' E 004°19'0 0.0
2018-Jan-11 17:29N 51°20' E 004°19'0 0.0
2018-Jan-11 16:59N 51°20' E 004°19'0 0.0
2018-Jan-11 16:29N 51°20' E 004°19'0 0.0
2018-Jan-11 15:59N 51°20' E 004°19'0 0.0
2018-Jan-11 15:29N 51°20' E 004°19'0 0.0
2018-Jan-11 14:59N 51°20' E 004°19'0 0.0
2018-Jan-11 14:29N 51°20' E 004°19'0 0.0
2018-Jan-11 13:53N 51°20' E 004°19'0 0.0
2018-Jan-11 13:29N 51°20' E 004°19'0 0.0
2018-Jan-11 12:59N 51°20' E 004°19'0 0.0
2018-Jan-11 12:29N 51°20' E 004°19'0 0.0
2018-Jan-11 11:59N 51°20' E 004°19'0 0.0
2018-Jan-11 11:29N 51°20' E 004°19'0 0.0
2018-Jan-11 10:59N 51°20' E 004°19'0 0.0
2018-Jan-11 10:29N 51°20' E 004°19'0 0.0
2018-Jan-11 09:59N 51°20' E 004°19'0 0.0
2018-Jan-11 09:26N 51°20' E 004°19'0 0.0
2018-Jan-11 08:59N 51°20' E 004°19'0 0.0
2018-Jan-11 08:29N 51°20' E 004°19'0 0.0
2018-Jan-11 07:59N 51°20' E 004°19'0 0.0
2018-Jan-11 07:29N 51°20' E 004°19'0 0.0
2018-Jan-11 06:59N 51°20' E 004°19'0 0.0
2018-Jan-11 06:29N 51°20' E 004°19'0 0.0
2018-Jan-11 05:59N 51°20' E 004°19'0 0.0
2018-Jan-11 05:29N 51°20' E 004°19'0 0.0
2018-Jan-11 04:59N 51°20' E 004°19'0 0.0
2018-Jan-11 04:29N 51°20' E 004°19'0 0.0
2018-Jan-11 03:56N 51°20' E 004°19'0 0.0
2018-Jan-11 03:29N 51°20' E 004°19'0 0.0
2018-Jan-11 02:56N 51°20' E 004°19'0 0.0
2018-Jan-11 02:29N 51°20' E 004°19'0 0.0
2018-Jan-11 01:59N 51°20' E 004°19'0 0.0
2018-Jan-11 01:29N 51°20' E 004°19'0 0.0
2018-Jan-11 00:59N 51°20' E 004°19'0 0.0
2018-Jan-11 00:26N 51°20' E 004°19'0 0.0
2018-Jan-10 23:59N 51°20' E 004°19'0 0.0
2018-Jan-10 23:29N 51°20' E 004°19'0 0.0
2018-Jan-10 22:59N 51°20' E 004°19'0 0.0
2018-Jan-10 22:29N 51°20' E 004°19'0 0.0
2018-Jan-10 21:56N 51°20' E 004°19'0 0.0
2018-Jan-10 21:29N 51°20' E 004°19'0 0.0
2018-Jan-10 20:59N 51°20' E 004°19'0 0.0
2018-Jan-10 20:29N 51°20' E 004°19'0 0.0
2018-Jan-10 19:56N 51°20' E 004°19'0 0.0
2018-Jan-10 19:29N 51°20' E 004°19'0 0.0
2018-Jan-10 18:59N 51°20' E 004°19'0 0.0
2018-Jan-10 18:29N 51°20' E 004°19'0 0.0
2018-Jan-10 17:59N 51°20' E 004°19'0 0.0
2018-Jan-10 17:29N 51°20' E 004°19'0 0.0
2018-Jan-10 16:59N 51°20' E 004°19'0 0.0
2018-Jan-10 16:29N 51°20' E 004°19'0 0.0
2018-Jan-10 15:59N 51°20' E 004°19'0 0.0
2018-Jan-10 15:26N 51°20' E 004°19'0 0.0
2018-Jan-10 14:59N 51°20' E 004°19'0 0.0
2018-Jan-10 14:29N 51°20' E 004°19'0 0.0
2018-Jan-10 13:56N 51°20' E 004°19'0 0.0
2018-Jan-10 13:29N 51°20' E 004°19'0 0.0
2018-Jan-10 12:56N 51°20' E 004°19'0 0.0
2018-Jan-10 12:29N 51°20' E 004°19'0 0.0
2018-Jan-10 11:56N 51°20' E 004°19'0 0.0
2018-Jan-10 11:29N 51°20' E 004°19'0 0.0
2018-Jan-10 11:00N 51°20' E 004°19'0 0.0
2018-Jan-10 10:30N 51°20' E 004°19'0 0.0
2018-Jan-10 10:00N 51°20' E 004°19'0 0.0
2018-Jan-10 09:30N 51°20' E 004°19'0 0.0
2018-Jan-10 08:57N 51°20' E 004°19'0 0.0
2018-Jan-10 08:30N 51°20' E 004°19'0 0.0
2018-Jan-10 08:00N 51°20' E 004°19'0 0.0
2018-Jan-10 07:30N 51°20' E 004°19'0 0.0
2018-Jan-10 07:00N 51°20' E 004°19'0 0.0
2018-Jan-10 06:30N 51°20' E 004°19'0 0.0
2018-Jan-10 06:00N 51°20' E 004°19'0 0.0
2018-Jan-10 05:30N 51°20' E 004°19'0 0.0
2018-Jan-10 05:00N 51°20' E 004°19'0 0.0
2018-Jan-10 04:30N 51°20' E 004°19'0 0.0
2018-Jan-10 04:00N 51°20' E 004°19'0 0.0
2018-Jan-10 03:30N 51°20' E 004°19'0 0.0
2018-Jan-10 02:57N 51°20' E 004°19'0 0.0
2018-Jan-10 02:27N 51°20' E 004°19'0 0.0
2018-Jan-10 02:00N 51°20' E 004°19'0 0.0
2018-Jan-10 01:30N 51°20' E 004°19'0 0.0
2018-Jan-10 01:00N 51°20' E 004°19'0 0.0
2018-Jan-10 00:30N 51°20' E 004°19'0 0.0
2018-Jan-10 00:00N 51°20' E 004°19'0 0.0
2018-Jan-09 23:30N 51°20' E 004°19'0 0.0
2018-Jan-09 23:00N 51°20' E 004°19'0 0.0
2018-Jan-09 22:30N 51°20' E 004°19'0 0.0
2018-Jan-09 22:00N 51°20' E 004°19'0 0.0
2018-Jan-09 21:27N 51°20' E 004°19'0 0.0
2018-Jan-09 21:00N 51°20' E 004°19'0 0.0
2018-Jan-09 20:30N 51°20' E 004°19'0 0.0
2018-Jan-09 20:00N 51°20' E 004°19'0 0.0
2018-Jan-09 19:27N 51°20' E 004°19'0 0.0
2018-Jan-09 19:00N 51°20' E 004°19'0 0.0
2018-Jan-09 18:30N 51°20' E 004°19'0 0.0
2018-Jan-09 18:00N 51°20' E 004°19'0 0.0
2018-Jan-09 17:30N 51°20' E 004°19'0 0.0
2018-Jan-09 17:00N 51°20' E 004°19'0 0.0
2018-Jan-09 16:27N 51°20' E 004°19'0 0.0
2018-Jan-09 16:00N 51°20' E 004°19'0 0.0
2018-Jan-09 15:30N 51°20' E 004°19'0 0.0
2018-Jan-09 15:00N 51°20' E 004°19'0 0.0
2018-Jan-09 14:30N 51°20' E 004°19'0 0.0
2018-Jan-09 14:00N 51°20' E 004°19'0 0.0
2018-Jan-09 13:30N 51°20' E 004°19'0 0.0
2018-Jan-09 13:00N 51°20' E 004°19'0 0.0
2018-Jan-09 12:30N 51°20' E 004°19'0 0.0
2018-Jan-09 12:00N 51°20' E 004°19'0 0.0
2018-Jan-09 11:27N 51°20' E 004°19'0 0.0
2018-Jan-09 11:00N 51°20' E 004°19'0 0.0
2018-Jan-09 10:30N 51°20' E 004°19'0 0.0
2018-Jan-09 10:00N 51°20' E 004°19'0 0.0
2018-Jan-09 09:30N 51°20' E 004°19'0 0.0
2018-Jan-09 09:00N 51°20' E 004°19'0 0.0
2018-Jan-09 08:30N 51°20' E 004°19'0 0.0
2018-Jan-09 08:00N 51°20' E 004°19'0 0.0
2018-Jan-09 07:30N 51°20' E 004°19'0 0.0
2018-Jan-09 07:00N 51°20' E 004°19'0 0.0
2018-Jan-09 06:30N 51°20' E 004°19'0 0.0
2018-Jan-09 05:57N 51°20' E 004°19'0 0.0
2018-Jan-09 05:30N 51°20' E 004°19'0 0.0
2018-Jan-09 04:57N 51°20' E 004°19'0 0.0
2018-Jan-09 04:30N 51°20' E 004°19'0 0.0
2018-Jan-09 04:00N 51°20' E 004°19'0 0.0
2018-Jan-09 03:30N 51°20' E 004°19'0 0.0
2018-Jan-09 03:00N 51°20' E 004°19'0 0.0
2018-Jan-09 02:21N 51°20' E 004°19'0 0.0
2018-Jan-09 01:54N 51°20' E 004°19'0 0.0
2018-Jan-09 01:30N 51°20' E 004°19'0 0.0
2018-Jan-09 01:00N 51°20' E 004°19'0 0.0
2018-Jan-09 00:27N 51°20' E 004°19'0 0.0
2018-Jan-09 00:00N 51°20' E 004°19'0 0.0
2018-Jan-08 23:30N 51°20' E 004°19'0 0.0
2018-Jan-08 23:00N 51°20' E 004°19'0 0.0
2018-Jan-08 22:30N 51°20' E 004°19'0 0.0
2018-Jan-08 22:00N 51°20' E 004°19'0 0.0
2018-Jan-08 21:30N 51°20' E 004°19'0 0.0
2018-Jan-08 20:57N 51°20' E 004°19'0 0.0
2018-Jan-08 20:30N 51°20' E 004°19'0 0.0
2018-Jan-08 19:54N 51°20' E 004°19'0 0.0
2018-Jan-08 19:30N 51°20' E 004°19'0 0.0
2018-Jan-08 19:00N 51°20' E 004°19'0 0.0
2018-Jan-08 18:30N 51°20' E 004°19'0 0.0
2018-Jan-08 18:00N 51°20' E 004°19'0 0.0
2018-Jan-08 17:30N 51°20' E 004°19'0 0.0
2018-Jan-08 16:57N 51°20' E 004°19'0 0.0
2018-Jan-08 16:30N 51°20' E 004°19'0 0.0
2018-Jan-08 16:00N 51°20' E 004°19'0 0.0
2018-Jan-08 15:27N 51°20' E 004°19'0 0.0
2018-Jan-08 15:00N 51°20' E 004°19'0 0.0
2018-Jan-08 14:30N 51°20' E 004°19'0 0.0
2018-Jan-08 14:00N 51°20' E 004°19'0 0.0
2018-Jan-08 13:27N 51°20' E 004°19'0 0.0
2018-Jan-08 13:00N 51°20' E 004°19'0 0.0
2018-Jan-08 12:21N 51°20' E 004°19'0 0.0
2018-Jan-08 12:00N 51°20' E 004°19'0 0.0
2018-Jan-08 11:30N 51°20' E 004°19'0 0.0
2018-Jan-08 11:00N 51°20' E 004°19'0 0.0
2018-Jan-08 10:27N 51°20' E 004°19'0 0.0
2018-Jan-08 10:00N 51°20' E 004°19'0 0.0
2018-Jan-08 09:30N 51°20' E 004°19'0 0.0
2018-Jan-08 08:57N 51°20' E 004°19'0 0.0
2018-Jan-08 08:30N 51°20' E 004°19'0 0.0
2018-Jan-08 07:57N 51°20' E 004°19'0 0.0
2018-Jan-08 07:27N 51°20' E 004°19'0 0.0
2018-Jan-08 07:00N 51°20' E 004°19'0 0.0
2018-Jan-08 06:27N 51°20' E 004°19'0 0.0
2018-Jan-08 06:00N 51°20' E 004°19'0 0.0
2018-Jan-08 05:30N 51°20' E 004°19'0 0.0
2018-Jan-08 05:00N 51°20' E 004°19'0 0.0
2018-Jan-08 04:30N 51°20' E 004°19'0 0.0
2018-Jan-08 04:00N 51°20' E 004°19'0 0.0
2018-Jan-08 03:30N 51°20' E 004°19'0 0.0
2018-Jan-08 03:00N 51°20' E 004°19'0 0.0
2018-Jan-08 02:30N 51°20' E 004°19'0 0.0
2018-Jan-08 02:00N 51°20' E 004°19'0 0.0
2018-Jan-08 01:30N 51°20' E 004°19'  
Track history (hours):
 
Tides and Currents Weather Stations Pressure Air Temp Water Temp Dewpoint Dewpoint Depression Visibility Wind Speed Wind Dir Waves Ship Positions

Heina

Last reported at 2018-Jan-18 01:05 UTC. Time now 2018-Jan-21 16:24 UTC.
Position N 34°55' W 032°11'.

Length 225 m; draft 7.4 m.

Type: Ship. MMSI: 258443000.

Date/timePositionNaut miles runAvg speedWind from/ knotsBaromVisibWave heightAir tempDewpointWater temp
2018-Jan-18 01:05N 34°55' W 032°11'115.4
2018-Jan-18 01:00N 34°55' W 032°10'1514.8
2018-Jan-18 00:00N 35°04' W 031°55'114.6
2018-Jan-17 23:57N 35°05' W 031°55'  
2018-Jan-12 15:00N 51°07' E 001°36'815.5
2018-Jan-12 14:30N 51°13' E 001°45'815.2
2018-Jan-12 14:00N 51°19' E 001°52'714.4
2018-Jan-12 13:31N 51°25' E 001°59'714.0
2018-Jan-12 13:00N 51°23' E 002°10'714.0
2018-Jan-12 12:30N 51°21' E 002°20'713.9
2018-Jan-12 12:00N 51°23' E 002°31'713.5
2018-Jan-12 11:30N 51°24' E 002°42'611.3
2018-Jan-12 11:00N 51°25' E 002°50'713.2
2018-Jan-12 10:30N 51°25' E 003°01'713.1
2018-Jan-12 10:00N 51°24' E 003°11'713.1
2018-Jan-12 09:30N 51°25' E 003°22'612.0
2018-Jan-12 09:00N 51°25' E 003°31'5 9.0
2018-Jan-12 08:30N 51°26' E 003°39'5 9.6
2018-Jan-12 08:00N 51°23' E 003°44'611.1
2018-Jan-12 07:30N 51°21' E 003°52'510.9
2018-Jan-12 07:00N 51°25' E 003°58'4 7.2
2018-Jan-12 06:30N 51°23' E 004°02'510.7
2018-Jan-12 06:00N 51°24' E 004°11'4 8.9
2018-Jan-12 05:30N 51°21' E 004°16'1 1.5
2018-Jan-12 05:00N 51°21' E 004°17'0 0.0
2018-Jan-12 04:31N 51°21' E 004°17'0 0.1
2018-Jan-12 04:00N 51°21' E 004°17'2 3.0
2018-Jan-12 03:30N 51°19' E 004°19'0 0.9
2018-Jan-12 02:59N 51°20' E 004°19'0 0.0
2018-Jan-12 02:29N 51°20' E 004°19'0 0.0
2018-Jan-12 01:59N 51°20' E 004°19'0 0.0
2018-Jan-12 01:29N 51°20' E 004°19'0 0.0
2018-Jan-12 00:59N 51°20' E 004°19'0 0.0
2018-Jan-12 00:29N 51°20' E 004°19'0 0.0
2018-Jan-11 23:59N 51°20' E 004°19'0 0.0
2018-Jan-11 23:29N 51°20' E 004°19'0 0.0
2018-Jan-11 22:59N 51°20' E 004°19'0 0.0
2018-Jan-11 22:29N 51°20' E 004°19'0 0.0
2018-Jan-11 21:59N 51°20' E 004°19'0 0.0
2018-Jan-11 21:29N 51°20' E 004°19'0 0.0
2018-Jan-11 20:50N 51°20' E 004°19'0 0.0
2018-Jan-11 20:29N 51°20' E 004°19'0 0.0
2018-Jan-11 19:59N 51°20' E 004°19'0 0.0
2018-Jan-11 19:29N 51°20' E 004°19'0 0.0
2018-Jan-11 18:59N 51°20' E 004°19'0 0.0
2018-Jan-11 18:29N 51°20' E 004°19'0 0.0
2018-Jan-11 17:56N 51°20' E 004°19'0 0.0
2018-Jan-11 17:29N 51°20' E 004°19'0 0.0
2018-Jan-11 16:59N 51°20' E 004°19'0 0.0
2018-Jan-11 16:29N 51°20' E 004°19'0 0.0
2018-Jan-11 15:59N 51°20' E 004°19'0 0.0
2018-Jan-11 15:29N 51°20' E 004°19'0 0.0
2018-Jan-11 14:59N 51°20' E 004°19'0 0.0
2018-Jan-11 14:29N 51°20' E 004°19'0 0.0
2018-Jan-11 13:53N 51°20' E 004°19'0 0.0
2018-Jan-11 13:29N 51°20' E 004°19'0 0.0
2018-Jan-11 12:59N 51°20' E 004°19'0 0.0
2018-Jan-11 12:29N 51°20' E 004°19'0 0.0
2018-Jan-11 11:59N 51°20' E 004°19'0 0.0
2018-Jan-11 11:29N 51°20' E 004°19'0 0.0
2018-Jan-11 10:59N 51°20' E 004°19'0 0.0
2018-Jan-11 10:29N 51°20' E 004°19'0 0.0
2018-Jan-11 09:59N 51°20' E 004°19'0 0.0
2018-Jan-11 09:26N 51°20' E 004°19'0 0.0
2018-Jan-11 08:59N 51°20' E 004°19'0 0.0
2018-Jan-11 08:29N 51°20' E 004°19'0 0.0
2018-Jan-11 07:59N 51°20' E 004°19'0 0.0
2018-Jan-11 07:29N 51°20' E 004°19'0 0.0
2018-Jan-11 06:59N 51°20' E 004°19'0 0.0
2018-Jan-11 06:29N 51°20' E 004°19'0 0.0
2018-Jan-11 05:59N 51°20' E 004°19'0 0.0
2018-Jan-11 05:29N 51°20' E 004°19'0 0.0
2018-Jan-11 04:59N 51°20' E 004°19'0 0.0
2018-Jan-11 04:29N 51°20' E 004°19'0 0.0
2018-Jan-11 03:56N 51°20' E 004°19'0 0.0
2018-Jan-11 03:29N 51°20' E 004°19'0 0.0
2018-Jan-11 02:56N 51°20' E 004°19'0 0.0
2018-Jan-11 02:29N 51°20' E 004°19'0 0.0
2018-Jan-11 01:59N 51°20' E 004°19'0 0.0
2018-Jan-11 01:29N 51°20' E 004°19'0 0.0
2018-Jan-11 00:59N 51°20' E 004°19'0 0.0
2018-Jan-11 00:26N 51°20' E 004°19'0 0.0
2018-Jan-10 23:59N 51°20' E 004°19'0 0.0
2018-Jan-10 23:29N 51°20' E 004°19'0 0.0
2018-Jan-10 22:59N 51°20' E 004°19'0 0.0
2018-Jan-10 22:29N 51°20' E 004°19'0 0.0
2018-Jan-10 21:56N 51°20' E 004°19'0 0.0
2018-Jan-10 21:29N 51°20' E 004°19'0 0.0
2018-Jan-10 20:59N 51°20' E 004°19'0 0.0
2018-Jan-10 20:29N 51°20' E 004°19'0 0.0
2018-Jan-10 19:56N 51°20' E 004°19'0 0.0
2018-Jan-10 19:29N 51°20' E 004°19'0 0.0
2018-Jan-10 18:59N 51°20' E 004°19'0 0.0
2018-Jan-10 18:29N 51°20' E 004°19'0 0.0
2018-Jan-10 17:59N 51°20' E 004°19'0 0.0
2018-Jan-10 17:29N 51°20' E 004°19'0 0.0
2018-Jan-10 16:59N 51°20' E 004°19'0 0.0
2018-Jan-10 16:29N 51°20' E 004°19'0 0.0
2018-Jan-10 15:59N 51°20' E 004°19'0 0.0
2018-Jan-10 15:26N 51°20' E 004°19'0 0.0
2018-Jan-10 14:59N 51°20' E 004°19'0 0.0
2018-Jan-10 14:29N 51°20' E 004°19'0 0.0
2018-Jan-10 13:56N 51°20' E 004°19'0 0.0
2018-Jan-10 13:29N 51°20' E 004°19'0 0.0
2018-Jan-10 12:56N 51°20' E 004°19'0 0.0
2018-Jan-10 12:29N 51°20' E 004°19'0 0.0
2018-Jan-10 11:56N 51°20' E 004°19'0 0.0
2018-Jan-10 11:29N 51°20' E 004°19'0 0.0
2018-Jan-10 11:00N 51°20' E 004°19'0 0.0
2018-Jan-10 10:30N 51°20' E 004°19'0 0.0
2018-Jan-10 10:00N 51°20' E 004°19'0 0.0
2018-Jan-10 09:30N 51°20' E 004°19'0 0.0
2018-Jan-10 08:57N 51°20' E 004°19'0 0.0
2018-Jan-10 08:30N 51°20' E 004°19'0 0.0
2018-Jan-10 08:00N 51°20' E 004°19'0 0.0
2018-Jan-10 07:30N 51°20' E 004°19'0 0.0
2018-Jan-10 07:00N 51°20' E 004°19'0 0.0
2018-Jan-10 06:30N 51°20' E 004°19'0 0.0
2018-Jan-10 06:00N 51°20' E 004°19'0 0.0
2018-Jan-10 05:30N 51°20' E 004°19'0 0.0
2018-Jan-10 05:00N 51°20' E 004°19'0 0.0
2018-Jan-10 04:30N 51°20' E 004°19'0 0.0
2018-Jan-10 04:00N 51°20' E 004°19'0 0.0
2018-Jan-10 03:30N 51°20' E 004°19'0 0.0
2018-Jan-10 02:57N 51°20' E 004°19'0 0.0
2018-Jan-10 02:27N 51°20' E 004°19'0 0.0
2018-Jan-10 02:00N 51°20' E 004°19'0 0.0
2018-Jan-10 01:30N 51°20' E 004°19'0 0.0
2018-Jan-10 01:00N 51°20' E 004°19'0 0.0
2018-Jan-10 00:30N 51°20' E 004°19'0 0.0
2018-Jan-10 00:00N 51°20' E 004°19'0 0.0
2018-Jan-09 23:30N 51°20' E 004°19'0 0.0
2018-Jan-09 23:00N 51°20' E 004°19'0 0.0
2018-Jan-09 22:30N 51°20' E 004°19'0 0.0
2018-Jan-09 22:00N 51°20' E 004°19'0 0.0
2018-Jan-09 21:27N 51°20' E 004°19'0 0.0
2018-Jan-09 21:00N 51°20' E 004°19'0 0.0
2018-Jan-09 20:30N 51°20' E 004°19'0 0.0
2018-Jan-09 20:00N 51°20' E 004°19'0 0.0
2018-Jan-09 19:27N 51°20' E 004°19'0 0.0
2018-Jan-09 19:00N 51°20' E 004°19'0 0.0
2018-Jan-09 18:30N 51°20' E 004°19'0 0.0
2018-Jan-09 18:00N 51°20' E 004°19'0 0.0
2018-Jan-09 17:30N 51°20' E 004°19'0 0.0
2018-Jan-09 17:00N 51°20' E 004°19'0 0.0
2018-Jan-09 16:27N 51°20' E 004°19'0 0.0
2018-Jan-09 16:00N 51°20' E 004°19'0 0.0
2018-Jan-09 15:30N 51°20' E 004°19'0 0.0
2018-Jan-09 15:00N 51°20' E 004°19'0 0.0
2018-Jan-09 14:30N 51°20' E 004°19'0 0.0
2018-Jan-09 14:00N 51°20' E 004°19'0 0.0
2018-Jan-09 13:30N 51°20' E 004°19'0 0.0
2018-Jan-09 13:00N 51°20' E 004°19'0 0.0
2018-Jan-09 12:30N 51°20' E 004°19'0 0.0
2018-Jan-09 12:00N 51°20' E 004°19'0 0.0
2018-Jan-09 11:27N 51°20' E 004°19'0 0.0
2018-Jan-09 11:00N 51°20' E 004°19'0 0.0
2018-Jan-09 10:30N 51°20' E 004°19'0 0.0
2018-Jan-09 10:00N 51°20' E 004°19'0 0.0
2018-Jan-09 09:30N 51°20' E 004°19'0 0.0
2018-Jan-09 09:00N 51°20' E 004°19'0 0.0
2018-Jan-09 08:30N 51°20' E 004°19'0 0.0
2018-Jan-09 08:00N 51°20' E 004°19'0 0.0
2018-Jan-09 07:30N 51°20' E 004°19'0 0.0
2018-Jan-09 07:00N 51°20' E 004°19'0 0.0
2018-Jan-09 06:30N 51°20' E 004°19'0 0.0
2018-Jan-09 05:57N 51°20' E 004°19'0 0.0
2018-Jan-09 05:30N 51°20' E 004°19'0 0.0
2018-Jan-09 04:57N 51°20' E 004°19'0 0.0
2018-Jan-09 04:30N 51°20' E 004°19'0 0.0
2018-Jan-09 04:00N 51°20' E 004°19'0 0.0
2018-Jan-09 03:30N 51°20' E 004°19'0 0.0
2018-Jan-09 03:00N 51°20' E 004°19'0 0.0
2018-Jan-09 02:21N 51°20' E 004°19'0 0.0
2018-Jan-09 01:54N 51°20' E 004°19'0 0.0
2018-Jan-09 01:30N 51°20' E 004°19'0 0.0
2018-Jan-09 01:00N 51°20' E 004°19'0 0.0
2018-Jan-09 00:27N 51°20' E 004°19'0 0.0
2018-Jan-09 00:00N 51°20' E 004°19'0 0.0
2018-Jan-08 23:30N 51°20' E 004°19'0 0.0
2018-Jan-08 23:00N 51°20' E 004°19'0 0.0
2018-Jan-08 22:30N 51°20' E 004°19'0 0.0
2018-Jan-08 22:00N 51°20' E 004°19'0 0.0
2018-Jan-08 21:30N 51°20' E 004°19'0 0.0
2018-Jan-08 20:57N 51°20' E 004°19'0 0.0
2018-Jan-08 20:30N 51°20' E 004°19'0 0.0
2018-Jan-08 19:54N 51°20' E 004°19'0 0.0
2018-Jan-08 19:30N 51°20' E 004°19'0 0.0
2018-Jan-08 19:00N 51°20' E 004°19'0 0.0
2018-Jan-08 18:30N 51°20' E 004°19'0 0.0
2018-Jan-08 18:00N 51°20' E 004°19'0 0.0
2018-Jan-08 17:30N 51°20' E 004°19'0 0.0
2018-Jan-08 16:57N 51°20' E 004°19'0 0.0
2018-Jan-08 16:30N 51°20' E 004°19'0 0.0
2018-Jan-08 16:00N 51°20' E 004°19'0 0.0
2018-Jan-08 15:27N 51°20' E 004°19'0 0.0
2018-Jan-08 15:00N 51°20' E 004°19'0 0.0
2018-Jan-08 14:30N 51°20' E 004°19'0 0.0
2018-Jan-08 14:00N 51°20' E 004°19'0 0.0
2018-Jan-08 13:27N 51°20' E 004°19'0 0.0
2018-Jan-08 13:00N 51°20' E 004°19'0 0.0
2018-Jan-08 12:21N 51°20' E 004°19'0 0.0
2018-Jan-08 12:00N 51°20' E 004°19'0 0.0
2018-Jan-08 11:30N 51°20' E 004°19'0 0.0
2018-Jan-08 11:00N 51°20' E 004°19'0 0.0
2018-Jan-08 10:27N 51°20' E 004°19'0 0.0
2018-Jan-08 10:00N 51°20' E 004°19'0 0.0
2018-Jan-08 09:30N 51°20' E 004°19'0 0.0
2018-Jan-08 08:57N 51°20' E 004°19'0 0.0
2018-Jan-08 08:30N 51°20' E 004°19'0 0.0
2018-Jan-08 07:57N 51°20' E 004°19'0 0.0
2018-Jan-08 07:27N 51°20' E 004°19'0 0.0
2018-Jan-08 07:00N 51°20' E 004°19'0 0.0
2018-Jan-08 06:27N 51°20' E 004°19'0 0.0
2018-Jan-08 06:00N 51°20' E 004°19'0 0.0
2018-Jan-08 05:30N 51°20' E 004°19'0 0.0
2018-Jan-08 05:00N 51°20' E 004°19'0 0.0
2018-Jan-08 04:30N 51°20' E 004°19'0 0.0
2018-Jan-08 04:00N 51°20' E 004°19'0 0.0
2018-Jan-08 03:30N 51°20' E 004°19'0 0.0
2018-Jan-08 03:00N 51°20' E 004°19'0 0.0
2018-Jan-08 02:30N 51°20' E 004°19'0 0.0
2018-Jan-08 02:00N 51°20' E 004°19'0 0.0
2018-Jan-08 01:30N 51°20' E 004°19'  

Dump ship's entire track history